首页
METAR-TAF:

METAR-TAF

机场 :

Regional_Airport

Clinton, 奧克拉荷馬州, 美国

纬度: 35-32-17N, 经度: 098-55-17W, 海拔: 492米

当前天气观测

该预报发布于11分钟前的20:15 UTC
风速24节,风向,有时为31节阵风
温度 33°C
湿度 41%
气压 1007 hPa
能見度: 16.1公里
散云层高于5000英尺

METAR: KCLK 172015Z AUTO 17024G31KT 10SM SCT050 33/18 A2973 RMK AO2

时间: 15:26 (20:26 UTC)


TAF: 丢失

超过4000个机场的气象观测和天气预报(METAR&TAF报告)。

可查询的气象台以黄色和红色小点在地图上表示。

将鼠标移到小点上方,可查看气象台名称。

然后点击查看天气观测和预报。

如需切换地图:点击带黑十字的绿色按钮放大地图;点击带横线的绿色按钮缩小地图;或者点击绿色箭头查看邻近地区的地图。


METAR-TAF: